sensor_id;sensor_type;location;lat;lon;timestamp;P1;durP1;ratioP1;P2;durP2;ratioP2
22711;SDS011;11523;50.390;8.072;2023-04-23T00:00:06;4.85;;;4.10;;
22711;SDS011;11523;50.390;8.072;2023-04-23T00:02:32;4.13;;;3.72;;
22711;SDS011;11523;50.390;8.072;2023-04-23T00:05:02;6.22;;;4.38;;
22711;SDS011;11523;50.390;8.072;2023-04-23T00:07:29;4.45;;;3.85;;
22711;SDS011;11523;50.390;8.072;2023-04-23T00:09:56;4.05;;;3.65;;
22711;SDS011;11523;50.390;8.072;2023-04-23T00:12:22;4.45;;;4.05;;
22711;SDS011;11523;50.390;8.072;2023-04-23T00:14:48;4.88;;;4.38;;
22711;SDS011;11523;50.390;8.072;2023-04-23T00:17:14;4.63;;;4.22;;
22711;SDS011;11523;50.390;8.072;2023-04-23T00:19:40;6.60;;;4.10;;
22711;SDS011;11523;50.390;8.072;2023-04-23T00:22:06;5.55;;;3.60;;
22711;SDS011;11523;50.390;8.072;2023-04-23T00:24:32;4.95;;;3.60;;
22711;SDS011;11523;50.390;8.072;2023-04-23T00:27:00;4.45;;;3.88;;
22711;SDS011;11523;50.390;8.072;2023-04-23T00:29:26;4.20;;;3.80;;
22711;SDS011;11523;50.390;8.072;2023-04-23T00:31:52;3.92;;;3.50;;
22711;SDS011;11523;50.390;8.072;2023-04-23T00:34:18;3.92;;;3.63;;
22711;SDS011;11523;50.390;8.072;2023-04-23T00:36:44;4.40;;;3.40;;
22711;SDS011;11523;50.390;8.072;2023-04-23T00:39:10;3.85;;;3.42;;
22711;SDS011;11523;50.390;8.072;2023-04-23T00:41:36;3.42;;;3.13;;
22711;SDS011;11523;50.390;8.072;2023-04-23T00:44:02;4.70;;;3.45;;
22711;SDS011;11523;50.390;8.072;2023-04-23T00:46:28;3.83;;;3.40;;
22711;SDS011;11523;50.390;8.072;2023-04-23T00:48:54;4.18;;;3.85;;
22711;SDS011;11523;50.390;8.072;2023-04-23T00:51:20;3.90;;;3.60;;
22711;SDS011;11523;50.390;8.072;2023-04-23T00:53:48;6.70;;;3.60;;
22711;SDS011;11523;50.390;8.072;2023-04-23T00:56:14;3.63;;;3.33;;
22711;SDS011;11523;50.390;8.072;2023-04-23T00:58:40;4.43;;;3.67;;
22711;SDS011;11523;50.390;8.072;2023-04-23T01:01:06;3.70;;;3.40;;
22711;SDS011;11523;50.390;8.072;2023-04-23T01:03:32;3.60;;;3.30;;
22711;SDS011;11523;50.390;8.072;2023-04-23T01:06:00;4.90;;;3.80;;
22711;SDS011;11523;50.390;8.072;2023-04-23T01:08:26;3.47;;;3.20;;
22711;SDS011;11523;50.390;8.072;2023-04-23T01:10:53;5.22;;;3.60;;
22711;SDS011;11523;50.390;8.072;2023-04-23T01:13:19;4.43;;;3.90;;
22711;SDS011;11523;50.390;8.072;2023-04-23T01:15:46;3.95;;;3.55;;
22711;SDS011;11523;50.390;8.072;2023-04-23T01:18:12;3.72;;;3.42;;
22711;SDS011;11523;50.390;8.072;2023-04-23T01:20:39;4.05;;;3.58;;
22711;SDS011;11523;50.390;8.072;2023-04-23T01:23:05;3.97;;;3.67;;
22711;SDS011;11523;50.390;8.072;2023-04-23T01:25:31;3.78;;;3.47;;
22711;SDS011;11523;50.390;8.072;2023-04-23T01:27:57;3.92;;;3.47;;
22711;SDS011;11523;50.390;8.072;2023-04-23T01:30:24;4.07;;;3.53;;
22711;SDS011;11523;50.390;8.072;2023-04-23T01:32:51;4.07;;;3.67;;
22711;SDS011;11523;50.390;8.072;2023-04-23T01:35:17;3.90;;;3.60;;
22711;SDS011;11523;50.390;8.072;2023-04-23T01:37:43;3.90;;;3.47;;
22711;SDS011;11523;50.390;8.072;2023-04-23T01:40:09;5.10;;;3.53;;
22711;SDS011;11523;50.390;8.072;2023-04-23T01:42:35;4.47;;;3.30;;
22711;SDS011;11523;50.390;8.072;2023-04-23T01:45:01;3.63;;;3.33;;
22711;SDS011;11523;50.390;8.072;2023-04-23T01:47:27;3.83;;;3.53;;
22711;SDS011;11523;50.390;8.072;2023-04-23T01:49:54;5.45;;;3.60;;
22711;SDS011;11523;50.390;8.072;2023-04-23T01:52:20;3.90;;;3.50;;
22711;SDS011;11523;50.390;8.072;2023-04-23T01:54:46;4.10;;;3.50;;
22711;SDS011;11523;50.390;8.072;2023-04-23T01:57:12;3.47;;;3.17;;
22711;SDS011;11523;50.390;8.072;2023-04-23T01:59:38;4.93;;;3.75;;
22711;SDS011;11523;50.390;8.072;2023-04-23T02:02:04;4.72;;;4.10;;
22711;SDS011;11523;50.390;8.072;2023-04-23T02:04:34;4.32;;;3.63;;
22711;SDS011;11523;50.390;8.072;2023-04-23T02:07:01;3.97;;;3.58;;
22711;SDS011;11523;50.390;8.072;2023-04-23T02:09:27;4.03;;;3.72;;
22711;SDS011;11523;50.390;8.072;2023-04-23T02:11:53;4.20;;;3.80;;
22711;SDS011;11523;50.390;8.072;2023-04-23T02:14:21;5.15;;;3.30;;
22711;SDS011;11523;50.390;8.072;2023-04-23T02:16:46;4.05;;;3.60;;
22711;SDS011;11523;50.390;8.072;2023-04-23T02:19:13;3.72;;;3.42;;
22711;SDS011;11523;50.390;8.072;2023-04-23T02:21:40;4.30;;;3.70;;
22711;SDS011;11523;50.390;8.072;2023-04-23T02:24:06;4.07;;;3.50;;
22711;SDS011;11523;50.390;8.072;2023-04-23T02:26:32;4.10;;;3.70;;
22711;SDS011;11523;50.390;8.072;2023-04-23T02:28:58;5.35;;;3.90;;
22711;SDS011;11523;50.390;8.072;2023-04-23T02:31:24;4.88;;;3.67;;
22711;SDS011;11523;50.390;8.072;2023-04-23T02:33:50;6.03;;;3.90;;
22711;SDS011;11523;50.390;8.072;2023-04-23T02:36:16;4.50;;;3.63;;
22711;SDS011;11523;50.390;8.072;2023-04-23T02:38:42;4.15;;;3.75;;
22711;SDS011;11523;50.390;8.072;2023-04-23T02:41:09;6.30;;;3.90;;
22711;SDS011;11523;50.390;8.072;2023-04-23T02:43:36;5.38;;;3.70;;
22711;SDS011;11523;50.390;8.072;2023-04-23T02:46:02;4.47;;;4.07;;
22711;SDS011;11523;50.390;8.072;2023-04-23T02:48:38;4.38;;;3.92;;
22711;SDS011;11523;50.390;8.072;2023-04-23T02:51:04;4.53;;;4.13;;
22711;SDS011;11523;50.390;8.072;2023-04-23T02:53:31;4.00;;;3.60;;
22711;SDS011;11523;50.390;8.072;2023-04-23T02:55:57;4.28;;;3.80;;
22711;SDS011;11523;50.390;8.072;2023-04-23T02:58:23;3.90;;;3.53;;
22711;SDS011;11523;50.390;8.072;2023-04-23T03:00:49;6.25;;;4.50;;
22711;SDS011;11523;50.390;8.072;2023-04-23T03:03:15;4.65;;;4.13;;
22711;SDS011;11523;50.390;8.072;2023-04-23T03:05:40;5.22;;;4.55;;
22711;SDS011;11523;50.390;8.072;2023-04-23T03:08:06;5.35;;;4.10;;
22711;SDS011;11523;50.390;8.072;2023-04-23T03:10:32;4.90;;;4.40;;
22711;SDS011;11523;50.390;8.072;2023-04-23T03:12:58;4.90;;;4.40;;
22711;SDS011;11523;50.390;8.072;2023-04-23T03:15:24;6.57;;;4.43;;
22711;SDS011;11523;50.390;8.072;2023-04-23T03:17:51;5.07;;;4.63;;
22711;SDS011;11523;50.390;8.072;2023-04-23T03:20:17;5.47;;;4.40;;
22711;SDS011;11523;50.390;8.072;2023-04-23T03:22:43;5.32;;;4.82;;
22711;SDS011;11523;50.390;8.072;2023-04-23T03:25:10;4.93;;;4.43;;
22711;SDS011;11523;50.390;8.072;2023-04-23T03:27:37;5.03;;;4.63;;
22711;SDS011;11523;50.390;8.072;2023-04-23T03:30:04;5.50;;;5.00;;
22711;SDS011;11523;50.390;8.072;2023-04-23T03:32:31;6.20;;;4.90;;
22711;SDS011;11523;50.390;8.072;2023-04-23T03:34:57;5.50;;;4.70;;
22711;SDS011;11523;50.390;8.072;2023-04-23T03:37:23;5.00;;;4.50;;
22711;SDS011;11523;50.390;8.072;2023-04-23T03:39:49;5.32;;;4.82;;
22711;SDS011;11523;50.390;8.072;2023-04-23T03:42:15;5.70;;;5.03;;
22711;SDS011;11523;50.390;8.072;2023-04-23T03:44:41;5.63;;;5.13;;
22711;SDS011;11523;50.390;8.072;2023-04-23T03:47:07;5.30;;;4.80;;
22711;SDS011;11523;50.390;8.072;2023-04-23T03:49:33;5.55;;;4.78;;
22711;SDS011;11523;50.390;8.072;2023-04-23T03:52:00;6.03;;;5.43;;
22711;SDS011;11523;50.390;8.072;2023-04-23T03:54:26;6.25;;;5.43;;
22711;SDS011;11523;50.390;8.072;2023-04-23T03:56:52;5.40;;;4.90;;
22711;SDS011;11523;50.390;8.072;2023-04-23T03:59:18;5.53;;;4.93;;
22711;SDS011;11523;50.390;8.072;2023-04-23T04:01:45;6.55;;;5.50;;
22711;SDS011;11523;50.390;8.072;2023-04-23T04:04:12;5.60;;;4.80;;
22711;SDS011;11523;50.390;8.072;2023-04-23T04:06:38;6.18;;;5.57;;
22711;SDS011;11523;50.390;8.072;2023-04-23T04:09:04;6.78;;;5.03;;
22711;SDS011;11523;50.390;8.072;2023-04-23T04:11:32;6.03;;;5.20;;
22711;SDS011;11523;50.390;8.072;2023-04-23T04:13:58;5.03;;;4.53;;
22711;SDS011;11523;50.390;8.072;2023-04-23T04:16:24;6.90;;;4.97;;
22711;SDS011;11523;50.390;8.072;2023-04-23T04:18:50;5.30;;;4.80;;
22711;SDS011;11523;50.390;8.072;2023-04-23T04:21:16;5.68;;;4.90;;
22711;SDS011;11523;50.390;8.072;2023-04-23T04:23:43;7.28;;;5.22;;
22711;SDS011;11523;50.390;8.072;2023-04-23T04:26:09;5.70;;;4.68;;
22711;SDS011;11523;50.390;8.072;2023-04-23T04:28:35;8.38;;;4.50;;
22711;SDS011;11523;50.390;8.072;2023-04-23T04:31:01;4.95;;;4.50;;
22711;SDS011;11523;50.390;8.072;2023-04-23T04:33:27;6.20;;;5.05;;
22711;SDS011;11523;50.390;8.072;2023-04-23T04:35:54;8.80;;;5.32;;
22711;SDS011;11523;50.390;8.072;2023-04-23T04:38:20;5.80;;;5.25;;
22711;SDS011;11523;50.390;8.072;2023-04-23T04:40:46;5.93;;;5.40;;
22711;SDS011;11523;50.390;8.072;2023-04-23T04:43:13;5.82;;;5.00;;
22711;SDS011;11523;50.390;8.072;2023-04-23T04:45:40;5.32;;;4.75;;
22711;SDS011;11523;50.390;8.072;2023-04-23T04:48:06;6.63;;;4.88;;
22711;SDS011;11523;50.390;8.072;2023-04-23T04:50:32;5.57;;;5.05;;
22711;SDS011;11523;50.390;8.072;2023-04-23T04:52:58;5.78;;;5.28;;
22711;SDS011;11523;50.390;8.072;2023-04-23T04:55:24;6.55;;;5.63;;
22711;SDS011;11523;50.390;8.072;2023-04-23T04:57:57;6.30;;;5.65;;
22711;SDS011;11523;50.390;8.072;2023-04-23T05:00:23;6.40;;;5.70;;
22711;SDS011;11523;50.390;8.072;2023-04-23T05:02:52;7.40;;;5.32;;
22711;SDS011;11523;50.390;8.072;2023-04-23T05:05:25;6.40;;;5.80;;
22711;SDS011;11523;50.390;8.072;2023-04-23T05:07:51;5.70;;;4.57;;
22711;SDS011;11523;50.390;8.072;2023-04-23T05:10:23;5.65;;;5.07;;
22711;SDS011;11523;50.390;8.072;2023-04-23T05:12:50;6.05;;;4.65;;
22711;SDS011;11523;50.390;8.072;2023-04-23T05:15:16;6.22;;;5.25;;
22711;SDS011;11523;50.390;8.072;2023-04-23T05:17:42;6.57;;;5.22;;
22711;SDS011;11523;50.390;8.072;2023-04-23T05:20:08;5.95;;;5.18;;
22711;SDS011;11523;50.390;8.072;2023-04-23T05:22:38;5.55;;;4.95;;
22711;SDS011;11523;50.390;8.072;2023-04-23T05:25:05;5.45;;;4.90;;
22711;SDS011;11523;50.390;8.072;2023-04-23T05:27:31;5.95;;;4.72;;
22711;SDS011;11523;50.390;8.072;2023-04-23T05:29:57;7.68;;;4.97;;
22711;SDS011;11523;50.390;8.072;2023-04-23T05:32:23;7.15;;;5.25;;
22711;SDS011;11523;50.390;8.072;2023-04-23T05:34:50;5.32;;;4.72;;
22711;SDS011;11523;50.390;8.072;2023-04-23T05:37:16;6.30;;;5.65;;
22711;SDS011;11523;50.390;8.072;2023-04-23T05:39:41;7.93;;;5.00;;
22711;SDS011;11523;50.390;8.072;2023-04-23T05:42:07;6.03;;;5.43;;
22711;SDS011;11523;50.390;8.072;2023-04-23T05:44:33;6.22;;;5.63;;
22711;SDS011;11523;50.390;8.072;2023-04-23T05:46:59;8.80;;;5.93;;
22711;SDS011;11523;50.390;8.072;2023-04-23T05:49:25;6.68;;;6.07;;
22711;SDS011;11523;50.390;8.072;2023-04-23T05:51:51;6.40;;;5.78;;
22711;SDS011;11523;50.390;8.072;2023-04-23T05:54:17;6.90;;;5.95;;
22711;SDS011;11523;50.390;8.072;2023-04-23T05:56:43;7.20;;;5.93;;
22711;SDS011;11523;50.390;8.072;2023-04-23T05:59:10;6.88;;;5.93;;
22711;SDS011;11523;50.390;8.072;2023-04-23T06:01:36;7.45;;;6.28;;
22711;SDS011;11523;50.390;8.072;2023-04-23T06:04:02;6.22;;;5.65;;
22711;SDS011;11523;50.390;8.072;2023-04-23T06:06:28;6.55;;;5.95;;
22711;SDS011;11523;50.390;8.072;2023-04-23T06:08:55;6.30;;;5.80;;
22711;SDS011;11523;50.390;8.072;2023-04-23T06:11:21;5.40;;;4.90;;
22711;SDS011;11523;50.390;8.072;2023-04-23T06:13:47;8.32;;;4.57;;
22711;SDS011;11523;50.390;8.072;2023-04-23T06:16:13;5.57;;;4.85;;
22711;SDS011;11523;50.390;8.072;2023-04-23T06:18:39;6.35;;;4.25;;
22711;SDS011;11523;50.390;8.072;2023-04-23T06:21:05;6.10;;;4.30;;
22711;SDS011;11523;50.390;8.072;2023-04-23T06:23:31;4.72;;;4.00;;
22711;SDS011;11523;50.390;8.072;2023-04-23T06:25:58;5.20;;;4.53;;
22711;SDS011;11523;50.390;8.072;2023-04-23T06:28:24;4.68;;;4.28;;
22711;SDS011;11523;50.390;8.072;2023-04-23T06:30:51;5.10;;;4.00;;
22711;SDS011;11523;50.390;8.072;2023-04-23T06:33:17;6.55;;;4.55;;
22711;SDS011;11523;50.390;8.072;2023-04-23T06:35:43;4.05;;;3.75;;
22711;SDS011;11523;50.390;8.072;2023-04-23T06:38:10;6.53;;;4.70;;
22711;SDS011;11523;50.390;8.072;2023-04-23T06:40:36;5.65;;;4.70;;
22711;SDS011;11523;50.390;8.072;2023-04-23T06:43:02;6.40;;;4.85;;
22711;SDS011;11523;50.390;8.072;2023-04-23T06:45:32;5.32;;;4.47;;
22711;SDS011;11523;50.390;8.072;2023-04-23T06:47:59;4.72;;;4.22;;
22711;SDS011;11523;50.390;8.072;2023-04-23T06:50:25;7.80;;;4.90;;
22711;SDS011;11523;50.390;8.072;2023-04-23T06:52:51;5.13;;;4.63;;
22711;SDS011;11523;50.390;8.072;2023-04-23T06:55:17;6.13;;;4.47;;
22711;SDS011;11523;50.390;8.072;2023-04-23T06:57:44;5.15;;;4.72;;
22711;SDS011;11523;50.390;8.072;2023-04-23T07:00:10;5.47;;;4.57;;
22711;SDS011;11523;50.390;8.072;2023-04-23T07:02:37;4.40;;;4.00;;
22711;SDS011;11523;50.390;8.072;2023-04-23T07:05:03;4.93;;;4.40;;
22711;SDS011;11523;50.390;8.072;2023-04-23T07:07:29;5.00;;;4.60;;
22711;SDS011;11523;50.390;8.072;2023-04-23T07:09:55;4.80;;;4.40;;
22711;SDS011;11523;50.390;8.072;2023-04-23T07:12:21;6.05;;;4.07;;
22711;SDS011;11523;50.390;8.072;2023-04-23T07:14:47;5.43;;;3.70;;
22711;SDS011;11523;50.390;8.072;2023-04-23T07:17:12;4.90;;;4.40;;
22711;SDS011;11523;50.390;8.072;2023-04-23T07:19:38;6.10;;;4.45;;
22711;SDS011;11523;50.390;8.072;2023-04-23T07:22:04;4.65;;;4.20;;
22711;SDS011;11523;50.390;8.072;2023-04-23T07:24:30;3.97;;;3.60;;
22711;SDS011;11523;50.390;8.072;2023-04-23T07:26:56;4.68;;;4.05;;
22711;SDS011;11523;50.390;8.072;2023-04-23T07:29:23;3.75;;;3.45;;
22711;SDS011;11523;50.390;8.072;2023-04-23T07:31:49;4.47;;;4.07;;
22711;SDS011;11523;50.390;8.072;2023-04-23T07:34:14;4.18;;;3.70;;
22711;SDS011;11523;50.390;8.072;2023-04-23T07:36:40;4.00;;;3.60;;
22711;SDS011;11523;50.390;8.072;2023-04-23T07:39:06;3.72;;;3.40;;
22711;SDS011;11523;50.390;8.072;2023-04-23T07:41:32;4.25;;;3.70;;
22711;SDS011;11523;50.390;8.072;2023-04-23T07:43:59;4.25;;;3.85;;
22711;SDS011;11523;50.390;8.072;2023-04-23T07:46:25;8.57;;;4.05;;
22711;SDS011;11523;50.390;8.072;2023-04-23T07:48:51;3.78;;;3.47;;
22711;SDS011;11523;50.390;8.072;2023-04-23T07:51:17;4.20;;;3.55;;
22711;SDS011;11523;50.390;8.072;2023-04-23T07:53:43;4.93;;;3.90;;
22711;SDS011;11523;50.390;8.072;2023-04-23T07:56:10;4.45;;;4.00;;
22711;SDS011;11523;50.390;8.072;2023-04-23T07:58:36;5.57;;;3.78;;
22711;SDS011;11523;50.390;8.072;2023-04-23T08:01:02;4.10;;;3.70;;
22711;SDS011;11523;50.390;8.072;2023-04-23T08:03:28;5.05;;;4.15;;
22711;SDS011;11523;50.390;8.072;2023-04-23T08:05:54;7.68;;;3.40;;
22711;SDS011;11523;50.390;8.072;2023-04-23T08:08:21;4.45;;;3.67;;
22711;SDS011;11523;50.390;8.072;2023-04-23T08:10:47;4.65;;;3.58;;
22711;SDS011;11523;50.390;8.072;2023-04-23T08:13:13;4.38;;;3.67;;
22711;SDS011;11523;50.390;8.072;2023-04-23T08:15:39;5.97;;;3.50;;
22711;SDS011;11523;50.390;8.072;2023-04-23T08:18:05;4.40;;;3.97;;
22711;SDS011;11523;50.390;8.072;2023-04-23T08:20:31;4.70;;;3.53;;
22711;SDS011;11523;50.390;8.072;2023-04-23T08:22:57;5.25;;;3.95;;
22711;SDS011;11523;50.390;8.072;2023-04-23T08:25:23;6.07;;;4.05;;
22711;SDS011;11523;50.390;8.072;2023-04-23T08:27:49;4.55;;;4.15;;
22711;SDS011;11523;50.390;8.072;2023-04-23T08:30:15;6.65;;;3.90;;
22711;SDS011;11523;50.390;8.072;2023-04-23T08:32:40;6.22;;;4.00;;
22711;SDS011;11523;50.390;8.072;2023-04-23T08:35:07;4.55;;;4.13;;
22711;SDS011;11523;50.390;8.072;2023-04-23T08:37:33;5.95;;;4.05;;
22711;SDS011;11523;50.390;8.072;2023-04-23T08:39:59;8.90;;;4.10;;
22711;SDS011;11523;50.390;8.072;2023-04-23T08:42:29;5.60;;;3.67;;
22711;SDS011;11523;50.390;8.072;2023-04-23T08:44:57;4.65;;;3.58;;
22711;SDS011;11523;50.390;8.072;2023-04-23T08:47:24;4.00;;;3.60;;
22711;SDS011;11523;50.390;8.072;2023-04-23T08:49:52;4.72;;;3.65;;
22711;SDS011;11523;50.390;8.072;2023-04-23T08:52:21;4.72;;;3.60;;
22711;SDS011;11523;50.390;8.072;2023-04-23T08:54:48;5.05;;;3.50;;
22711;SDS011;11523;50.390;8.072;2023-04-23T08:57:15;5.45;;;3.25;;
22711;SDS011;11523;50.390;8.072;2023-04-23T08:59:42;5.43;;;3.08;;
22711;SDS011;11523;50.390;8.072;2023-04-23T09:02:08;3.17;;;2.88;;
22711;SDS011;11523;50.390;8.072;2023-04-23T09:04:34;3.58;;;2.28;;
22711;SDS011;11523;50.390;8.072;2023-04-23T09:07:01;5.13;;;2.47;;
22711;SDS011;11523;50.390;8.072;2023-04-23T09:09:28;4.78;;;2.97;;
22711;SDS011;11523;50.390;8.072;2023-04-23T09:11:55;5.00;;;2.20;;
22711;SDS011;11523;50.390;8.072;2023-04-23T09:14:24;4.55;;;2.75;;
22711;SDS011;11523;50.390;8.072;2023-04-23T09:16:50;5.18;;;2.70;;
22711;SDS011;11523;50.390;8.072;2023-04-23T09:19:17;6.65;;;2.80;;
22711;SDS011;11523;50.390;8.072;2023-04-23T09:21:43;3.88;;;2.67;;
22711;SDS011;11523;50.390;8.072;2023-04-23T09:24:10;4.95;;;2.55;;
22711;SDS011;11523;50.390;8.072;2023-04-23T09:26:47;2.40;;;2.20;;
22711;SDS011;11523;50.390;8.072;2023-04-23T09:29:18;4.75;;;2.22;;
22711;SDS011;11523;50.390;8.072;2023-04-23T09:31:45;3.70;;;2.50;;
22711;SDS011;11523;50.390;8.072;2023-04-23T09:34:13;6.15;;;2.47;;
22711;SDS011;11523;50.390;8.072;2023-04-23T09:36:40;3.78;;;2.33;;
22711;SDS011;11523;50.390;8.072;2023-04-23T09:39:13;6.15;;;2.80;;
22711;SDS011;11523;50.390;8.072;2023-04-23T09:41:39;3.78;;;2.53;;
22711;SDS011;11523;50.390;8.072;2023-04-23T09:44:05;2.88;;;2.67;;
22711;SDS011;11523;50.390;8.072;2023-04-23T09:49:02;3.65;;;2.75;;
22711;SDS011;11523;50.390;8.072;2023-04-23T09:51:29;5.80;;;3.00;;
22711;SDS011;11523;50.390;8.072;2023-04-23T09:53:56;3.40;;;3.10;;
22711;SDS011;11523;50.390;8.072;2023-04-23T09:56:23;4.00;;;3.03;;
22711;SDS011;11523;50.390;8.072;2023-04-23T09:58:49;4.15;;;3.08;;
22711;SDS011;11523;50.390;8.072;2023-04-23T10:01:15;3.88;;;3.30;;
22711;SDS011;11523;50.390;8.072;2023-04-23T10:03:41;3.55;;;2.85;;
22711;SDS011;11523;50.390;8.072;2023-04-23T10:06:12;4.43;;;3.58;;
22711;SDS011;11523;50.390;8.072;2023-04-23T10:08:38;5.93;;;2.80;;
22711;SDS011;11523;50.390;8.072;2023-04-23T10:11:05;4.88;;;2.92;;
22711;SDS011;11523;50.390;8.072;2023-04-23T10:13:31;3.88;;;2.95;;
22711;SDS011;11523;50.390;8.072;2023-04-23T10:15:58;4.65;;;2.95;;
22711;SDS011;11523;50.390;8.072;2023-04-23T10:18:24;4.35;;;3.08;;
22711;SDS011;11523;50.390;8.072;2023-04-23T10:20:50;4.97;;;3.13;;
22711;SDS011;11523;50.390;8.072;2023-04-23T10:23:18;3.75;;;2.70;;
22711;SDS011;11523;50.390;8.072;2023-04-23T10:25:44;3.60;;;2.90;;
22711;SDS011;11523;50.390;8.072;2023-04-23T10:28:10;3.35;;;3.03;;
22711;SDS011;11523;50.390;8.072;2023-04-23T10:30:37;4.32;;;3.17;;
22711;SDS011;11523;50.390;8.072;2023-04-23T10:33:03;6.25;;;3.10;;
22711;SDS011;11523;50.390;8.072;2023-04-23T10:35:30;5.78;;;3.35;;
22711;SDS011;11523;50.390;8.072;2023-04-23T10:37:56;5.20;;;3.20;;
22711;SDS011;11523;50.390;8.072;2023-04-23T10:40:29;4.50;;;3.33;;
22711;SDS011;11523;50.390;8.072;2023-04-23T10:42:55;3.60;;;3.15;;
22711;SDS011;11523;50.390;8.072;2023-04-23T10:45:21;7.57;;;3.58;;
22711;SDS011;11523;50.390;8.072;2023-04-23T10:47:47;5.10;;;3.33;;
22711;SDS011;11523;50.390;8.072;2023-04-23T10:50:17;3.47;;;3.17;;
22711;SDS011;11523;50.390;8.072;2023-04-23T10:52:43;6.05;;;3.35;;
22711;SDS011;11523;50.390;8.072;2023-04-23T10:55:15;3.72;;;3.40;;
22711;SDS011;11523;50.390;8.072;2023-04-23T10:57:54;3.80;;;3.40;;
22711;SDS011;11523;50.390;8.072;2023-04-23T11:00:27;5.10;;;3.70;;
22711;SDS011;11523;50.390;8.072;2023-04-23T11:03:00;4.25;;;2.90;;
22711;SDS011;11523;50.390;8.072;2023-04-23T11:05:26;3.88;;;2.80;;
22711;SDS011;11523;50.390;8.072;2023-04-23T11:08:03;4.20;;;3.03;;
22711;SDS011;11523;50.390;8.072;2023-04-23T11:10:29;4.47;;;2.80;;
22711;SDS011;11523;50.390;8.072;2023-04-23T11:12:56;3.20;;;2.22;;
22711;SDS011;11523;50.390;8.072;2023-04-23T11:15:22;4.03;;;2.50;;
22711;SDS011;11523;50.390;8.072;2023-04-23T11:20:21;3.63;;;2.25;;
22711;SDS011;11523;50.390;8.072;2023-04-23T11:22:47;2.75;;;2.40;;
22711;SDS011;11523;50.390;8.072;2023-04-23T11:25:15;3.10;;;2.50;;
22711;SDS011;11523;50.390;8.072;2023-04-23T11:27:44;4.22;;;2.55;;
22711;SDS011;11523;50.390;8.072;2023-04-23T11:32:37;3.53;;;2.20;;
22711;SDS011;11523;50.390;8.072;2023-04-23T11:35:03;4.47;;;2.10;;
22711;SDS011;11523;50.390;8.072;2023-04-23T11:37:29;3.80;;;1.90;;
22711;SDS011;11523;50.390;8.072;2023-04-23T11:39:55;2.40;;;2.20;;
22711;SDS011;11523;50.390;8.072;2023-04-23T11:42:22;2.70;;;2.10;;
22711;SDS011;11523;50.390;8.072;2023-04-23T11:44:49;1.65;;;1.30;;
22711;SDS011;11523;50.390;8.072;2023-04-23T11:47:15;3.22;;;2.00;;
22711;SDS011;11523;50.390;8.072;2023-04-23T11:49:43;3.90;;;2.00;;
22711;SDS011;11523;50.390;8.072;2023-04-23T11:52:09;3.10;;;1.88;;
22711;SDS011;11523;50.390;8.072;2023-04-23T11:54:35;4.10;;;1.65;;
22711;SDS011;11523;50.390;8.072;2023-04-23T11:57:01;2.58;;;1.88;;
22711;SDS011;11523;50.390;8.072;2023-04-23T11:59:28;4.07;;;2.03;;
22711;SDS011;11523;50.390;8.072;2023-04-23T12:01:56;2.47;;;2.00;;
22711;SDS011;11523;50.390;8.072;2023-04-23T12:04:31;3.83;;;2.10;;
22711;SDS011;11523;50.390;8.072;2023-04-23T12:06:57;2.70;;;1.80;;
22711;SDS011;11523;50.390;8.072;2023-04-23T12:09:25;3.35;;;2.10;;
22711;SDS011;11523;50.390;8.072;2023-04-23T12:11:51;2.15;;;1.95;;
22711;SDS011;11523;50.390;8.072;2023-04-23T12:14:18;3.20;;;1.95;;
22711;SDS011;11523;50.390;8.072;2023-04-23T12:16:46;4.20;;;1.90;;
22711;SDS011;11523;50.390;8.072;2023-04-23T12:19:17;3.85;;;1.88;;
22711;SDS011;11523;50.390;8.072;2023-04-23T12:21:58;3.50;;;1.83;;
22711;SDS011;11523;50.390;8.072;2023-04-23T12:24:25;3.40;;;1.52;;
22711;SDS011;11523;50.390;8.072;2023-04-23T12:26:58;4.28;;;1.70;;
22711;SDS011;11523;50.390;8.072;2023-04-23T12:29:27;2.80;;;1.80;;
22711;SDS011;11523;50.390;8.072;2023-04-23T12:31:56;1.75;;;1.48;;
22711;SDS011;11523;50.390;8.072;2023-04-23T12:34:22;5.03;;;1.55;;
22711;SDS011;11523;50.390;8.072;2023-04-23T12:36:53;2.30;;;1.50;;
22711;SDS011;11523;50.390;8.072;2023-04-23T12:39:24;4.32;;;1.70;;
22711;SDS011;11523;50.390;8.072;2023-04-23T12:41:51;3.38;;;1.58;;
22711;SDS011;11523;50.390;8.072;2023-04-23T12:44:17;3.00;;;1.65;;
22711;SDS011;11523;50.390;8.072;2023-04-23T12:46:43;4.10;;;1.77;;
22711;SDS011;11523;50.390;8.072;2023-04-23T12:49:09;2.08;;;1.50;;
22711;SDS011;11523;50.390;8.072;2023-04-23T12:51:35;1.83;;;1.42;;
22711;SDS011;11523;50.390;8.072;2023-04-23T12:54:02;1.80;;;1.50;;
22711;SDS011;11523;50.390;8.072;2023-04-23T12:56:28;4.32;;;1.60;;
22711;SDS011;11523;50.390;8.072;2023-04-23T12:58:54;2.03;;;1.50;;
22711;SDS011;11523;50.390;8.072;2023-04-23T13:01:20;4.30;;;1.48;;
22711;SDS011;11523;50.390;8.072;2023-04-23T13:03:46;3.72;;;1.30;;
22711;SDS011;11523;50.390;8.072;2023-04-23T13:06:12;2.53;;;1.48;;
22711;SDS011;11523;50.390;8.072;2023-04-23T13:08:38;2.70;;;1.50;;
22711;SDS011;11523;50.390;8.072;2023-04-23T13:11:04;2.85;;;1.40;;
22711;SDS011;11523;50.390;8.072;2023-04-23T13:13:30;2.92;;;1.58;;
22711;SDS011;11523;50.390;8.072;2023-04-23T13:15:56;2.10;;;1.25;;
22711;SDS011;11523;50.390;8.072;2023-04-23T13:18:22;2.15;;;1.30;;
22711;SDS011;11523;50.390;8.072;2023-04-23T13:20:48;1.52;;;1.20;;
22711;SDS011;11523;50.390;8.072;2023-04-23T13:23:14;2.38;;;1.20;;
22711;SDS011;11523;50.390;8.072;2023-04-23T13:25:40;2.60;;;1.20;;
22711;SDS011;11523;50.390;8.072;2023-04-23T13:28:06;3.42;;;1.50;;
22711;SDS011;11523;50.390;8.072;2023-04-23T13:30:32;3.50;;;1.63;;
22711;SDS011;11523;50.390;8.072;2023-04-23T13:32:57;1.30;;;1.20;;
22711;SDS011;11523;50.390;8.072;2023-04-23T13:35:24;2.28;;;1.40;;
22711;SDS011;11523;50.390;8.072;2023-04-23T13:37:50;1.73;;;1.00;;
22711;SDS011;11523;50.390;8.072;2023-04-23T13:40:16;2.33;;;1.38;;
22711;SDS011;11523;50.390;8.072;2023-04-23T13:42:42;2.40;;;1.50;;
22711;SDS011;11523;50.390;8.072;2023-04-23T13:45:08;1.42;;;1.33;;
22711;SDS011;11523;50.390;8.072;2023-04-23T13:47:34;2.78;;;1.33;;
22711;SDS011;11523;50.390;8.072;2023-04-23T13:50:00;2.28;;;1.48;;
22711;SDS011;11523;50.390;8.072;2023-04-23T13:52:29;3.25;;;1.17;;
22711;SDS011;11523;50.390;8.072;2023-04-23T13:54:55;2.20;;;1.10;;
22711;SDS011;11523;50.390;8.072;2023-04-23T13:57:23;2.50;;;1.25;;
22711;SDS011;11523;50.390;8.072;2023-04-23T13:59:49;1.30;;;0.95;;
22711;SDS011;11523;50.390;8.072;2023-04-23T14:02:15;3.03;;;1.30;;
22711;SDS011;11523;50.390;8.072;2023-04-23T14:04:40;1.45;;;1.10;;
22711;SDS011;11523;50.390;8.072;2023-04-23T14:07:06;1.77;;;1.15;;
22711;SDS011;11523;50.390;8.072;2023-04-23T14:09:33;2.92;;;1.30;;
22711;SDS011;11523;50.390;8.072;2023-04-23T14:11:59;1.70;;;1.20;;
22711;SDS011;11523;50.390;8.072;2023-04-23T14:14:25;1.70;;;1.50;;
22711;SDS011;11523;50.390;8.072;2023-04-23T14:16:51;5.75;;;1.45;;
22711;SDS011;11523;50.390;8.072;2023-04-23T14:19:17;2.47;;;1.55;;
22711;SDS011;11523;50.390;8.072;2023-04-23T14:21:43;2.70;;;1.10;;
22711;SDS011;11523;50.390;8.072;2023-04-23T14:24:22;2.33;;;1.08;;
22711;SDS011;11523;50.390;8.072;2023-04-23T14:26:49;1.77;;;1.45;;
22711;SDS011;11523;50.390;8.072;2023-04-23T14:31:48;3.33;;;1.30;;
22711;SDS011;11523;50.390;8.072;2023-04-23T14:34:14;1.40;;;1.30;;
22711;SDS011;11523;50.390;8.072;2023-04-23T14:36:40;2.95;;;1.80;;
22711;SDS011;11523;50.390;8.072;2023-04-23T14:39:06;2.03;;;1.80;;
22711;SDS011;11523;50.390;8.072;2023-04-23T14:41:32;2.55;;;1.83;;
22711;SDS011;11523;50.390;8.072;2023-04-23T14:44:01;3.95;;;2.00;;
22711;SDS011;11523;50.390;8.072;2023-04-23T14:46:27;3.17;;;2.13;;
22711;SDS011;11523;50.390;8.072;2023-04-23T14:48:53;2.58;;;1.98;;
22711;SDS011;11523;50.390;8.072;2023-04-23T14:51:19;2.35;;;2.15;;
22711;SDS011;11523;50.390;8.072;2023-04-23T14:53:45;3.22;;;2.13;;